Time;durP1;ratioP1;P1;durP2;ratioP2;P2;SDS_P1;SDS_P2;PMS_P1;PMS_P2;Temp;Humidity;BMP_temperature;BMP_pressure;BME280_temperature;BME280_humidity;BME280_pressure;Samples;Min_cycle;Max_cycle;Signal;HPM_P1;HPM_P2
2021/05/02 00:02:40;;;;;;;13.90;6.00;;;7.40;99.70;;;;;;5024855;28;20460;-71
2021/05/02 00:05:08;;;;;;;9.20;4.43;;;7.40;99.70;;;;;;5028523;28;20447;-71
2021/05/02 00:07:35;;;;;;;13.73;6.93;;;7.50;99.70;;;;;;5029823;28;20459;-72
2021/05/02 00:10:01;;;;;;;9.50;4.87;;;7.50;99.70;;;;;;5029406;28;20452;-70
2021/05/02 00:12:28;;;;;;;15.13;5.97;;;7.30;99.70;;;;;;5009749;28;20468;-71
2021/05/02 00:14:55;;;;;;;11.67;4.60;;;7.20;99.70;;;;;;5009181;28;20881;-71
2021/05/02 00:17:22;;;;;;;12.07;5.50;;;7.40;99.70;;;;;;5009859;28;20445;-71
2021/05/02 00:19:50;;;;;;;12.50;5.40;;;7.50;99.70;;;;;;5009986;28;20799;-70
2021/05/02 00:22:17;;;;;;;11.80;5.27;;;7.40;99.70;;;;;;5008986;28;20469;-71
2021/05/02 00:24:44;;;;;;;16.90;6.23;;;7.40;99.70;;;;;;5009595;28;20449;-71
2021/05/02 00:27:11;;;;;;;13.33;5.80;;;7.40;99.70;;;;;;5009498;28;20525;-70
2021/05/02 00:29:40;;;;;;;10.60;5.20;;;7.40;99.70;;;;;;5009557;28;20811;-71
2021/05/02 00:32:08;;;;;;;11.30;5.63;;;7.30;99.70;;;;;;5008988;28;20465;-70
2021/05/02 00:34:35;;;;;;;18.37;5.00;;;7.30;99.70;;;;;;5009038;28;20982;-70
2021/05/02 00:37:03;;;;;;;19.17;5.80;;;7.20;99.70;;;;;;5009497;28;20453;-70
2021/05/02 00:39:30;;;;;;;12.57;6.47;;;7.20;99.70;;;;;;5010044;28;20481;-71
2021/05/02 00:42:01;;;;;;;9.17;4.10;;;7.20;99.70;;;;;;5009285;28;20495;-71
2021/05/02 00:44:32;;;;;;;18.93;5.57;;;7.10;99.70;;;;;;5009375;28;20446;-70
2021/05/02 00:47:08;;;;;;;10.17;5.10;;;7.20;99.70;;;;;;5009354;28;20457;-70
2021/05/02 00:49:38;;;;;;;11.50;4.90;;;7.10;99.70;;;;;;5009260;28;20477;-71
2021/05/02 00:52:15;;;;;;;9.63;5.37;;;7.10;99.70;;;;;;5009582;28;20509;-71
2021/05/02 00:54:47;;;;;;;14.73;5.47;;;7.00;99.70;;;;;;5009232;28;20477;-71
2021/05/02 00:57:19;;;;;;;10.03;5.33;;;7.00;99.70;;;;;;5009319;28;20457;-70
2021/05/02 00:59:49;;;;;;;10.40;4.67;;;7.00;99.70;;;;;;5009469;28;20488;-71
2021/05/02 01:02:16;;;;;;;13.67;4.40;;;7.00;99.70;;;;;;5009030;28;20487;-71
2021/05/02 01:04:44;;;;;;;13.10;4.80;;;7.10;99.70;;;;;;5008700;28;20949;-71
2021/05/02 01:07:20;;;;;;;13.67;5.57;;;7.00;99.70;;;;;;5009413;28;20452;-70
2021/05/02 01:09:47;;;;;;;10.10;4.67;;;7.10;99.70;;;;;;5009362;28;20437;-71
2021/05/02 01:12:15;;;;;;;12.10;4.67;;;7.10;99.70;;;;;;5012844;28;20472;-70
2021/05/02 01:14:44;;;;;;;10.27;5.33;;;7.10;99.70;;;;;;5012784;28;20449;-70
2021/05/02 01:17:13;;;;;;;9.80;4.80;;;6.90;99.70;;;;;;5012571;28;20972;-71
2021/05/02 01:19:39;;;;;;;11.60;5.20;;;7.00;99.70;;;;;;5012372;28;20484;-71
2021/05/02 01:22:13;;;;;;;9.17;4.13;;;6.90;99.70;;;;;;5011456;28;20477;-71
2021/05/02 01:24:44;;;;;;;15.10;5.90;;;7.10;99.70;;;;;;5012525;28;20457;-71
2021/05/02 01:27:16;;;;;;;12.83;5.07;;;6.90;99.70;;;;;;5012423;28;20874;-71
2021/05/02 01:29:42;;;;;;;12.03;4.20;;;6.90;99.70;;;;;;5012884;28;20444;-71
2021/05/02 01:32:08;;;;;;;15.00;5.87;;;7.10;99.70;;;;;;5012044;28;20480;-71
2021/05/02 01:34:34;;;;;;;10.80;4.97;;;7.00;99.70;;;;;;5012100;28;20496;-71
2021/05/02 01:37:01;;;;;;;8.27;4.43;;;7.00;99.70;;;;;;5012477;28;20460;-70
2021/05/02 01:39:29;;;;;;;14.83;5.77;;;7.00;99.70;;;;;;5012067;28;20477;-71
2021/05/02 01:41:56;;;;;;;13.50;4.97;;;6.90;99.70;;;;;;5012226;28;20462;-71
2021/05/02 01:44:22;;;;;;;8.90;5.63;;;6.90;99.70;;;;;;5011838;28;20441;-71
2021/05/02 01:46:49;;;;;;;11.70;5.27;;;6.90;99.70;;;;;;5012288;28;20445;-70
2021/05/02 01:49:18;;;;;;;11.00;4.70;;;6.90;99.70;;;;;;5012128;28;21003;-71
2021/05/02 01:51:45;;;;;;;13.57;6.07;;;6.90;99.70;;;;;;5011904;28;20465;-70
2021/05/02 01:54:14;;;;;;;12.40;5.27;;;6.80;99.70;;;;;;5011101;28;20471;-71
2021/05/02 01:56:40;;;;;;;13.20;5.77;;;6.90;99.70;;;;;;5010876;28;20896;-70
2021/05/02 01:59:09;;;;;;;12.20;5.60;;;7.00;99.70;;;;;;5012177;28;20481;-70
2021/05/02 02:01:36;;;;;;;12.83;5.53;;;7.00;99.70;;;;;;5011709;28;20550;-72
2021/05/02 02:04:05;;;;;;;15.47;5.63;;;6.90;99.70;;;;;;5008128;28;20446;-70
2021/05/02 02:06:32;;;;;;;13.00;5.67;;;6.80;99.70;;;;;;5006989;28;20461;-71
2021/05/02 02:08:59;;;;;;;12.27;5.73;;;6.80;99.70;;;;;;5007049;28;20449;-71
2021/05/02 02:11:29;;;;;;;18.27;5.63;;;6.80;99.70;;;;;;5010741;28;20898;-71
2021/05/02 02:13:56;;;;;;;7.70;3.83;;;6.90;99.70;;;;;;5011646;28;20449;-71
2021/05/02 02:16:24;;;;;;;8.93;4.63;;;6.90;99.70;;;;;;5011692;28;20441;-70
2021/05/02 02:18:51;;;;;;;11.47;4.70;;;6.80;99.70;;;;;;5011660;28;20489;-72
2021/05/02 02:21:20;;;;;;;8.73;4.27;;;6.90;99.70;;;;;;5010023;28;20478;-70
2021/05/02 02:23:52;;;;;;;11.83;5.40;;;6.80;99.70;;;;;;5006025;28;20524;-71
2021/05/02 02:26:25;;;;;;;9.20;4.33;;;6.80;99.70;;;;;;5007404;28;20903;-71
2021/05/02 02:28:53;;;;;;;7.63;4.30;;;7.00;99.70;;;;;;5007328;28;20445;-70
2021/05/02 02:31:21;;;;;;;14.20;5.00;;;7.00;99.70;;;;;;5009103;28;20473;-70
2021/05/02 02:33:49;;;;;;;6.77;4.77;;;6.80;99.70;;;;;;5011037;28;20491;-71
2021/05/02 02:36:16;;;;;;;10.03;4.60;;;6.80;99.70;;;;;;5011563;28;20453;-71
2021/05/02 02:38:44;;;;;;;10.50;4.83;;;7.00;99.70;;;;;;5011533;28;20450;-71
2021/05/02 02:41:14;;;;;;;12.20;4.70;;;6.90;99.70;;;;;;5011169;28;20468;-70
2021/05/02 02:43:43;;;;;;;13.47;5.97;;;7.00;99.70;;;;;;5011412;28;20524;-71
2021/05/02 02:46:17;;;;;;;8.77;5.27;;;6.90;99.70;;;;;;5011324;28;20442;-70
2021/05/02 02:48:46;;;;;;;10.73;4.87;;;6.90;99.70;;;;;;5011499;28;20787;-71
2021/05/02 02:51:14;;;;;;;15.30;6.23;;;6.90;99.70;;;;;;5010617;28;20839;-70
2021/05/02 02:53:43;;;;;;;12.87;6.57;;;7.00;99.70;;;;;;5010844;28;20445;-71
2021/05/02 02:56:12;;;;;;;14.73;6.43;;;6.90;99.70;;;;;;5010896;28;20452;-71
2021/05/02 02:58:43;;;;;;;14.60;5.37;;;6.90;99.70;;;;;;5010701;28;20441;-71
2021/05/02 03:01:11;;;;;;;12.30;6.03;;;6.90;99.70;;;;;;5010664;28;20480;-71
2021/05/02 03:03:42;;;;;;;13.37;5.57;;;6.90;99.70;;;;;;5010479;28;20449;-71
2021/05/02 03:06:09;;;;;;;14.00;6.47;;;7.00;99.70;;;;;;5010696;28;20453;-70
2021/05/02 03:08:38;;;;;;;16.23;5.60;;;7.00;99.70;;;;;;5010825;28;20441;-71
2021/05/02 03:11:05;;;;;;;15.83;7.20;;;7.00;99.70;;;;;;5010698;28;20469;-70
2021/05/02 03:13:32;;;;;;;15.20;5.70;;;7.10;99.70;;;;;;5010392;28;20453;-71
2021/05/02 03:16:01;;;;;;;14.17;7.10;;;7.20;99.70;;;;;;5010738;28;20453;-71
2021/05/02 03:18:30;;;;;;;13.47;6.03;;;7.00;99.70;;;;;;5010652;28;20445;-71
2021/05/02 03:21:02;;;;;;;14.83;5.90;;;6.90;99.70;;;;;;5010271;28;20485;-71
2021/05/02 03:23:32;;;;;;;14.53;5.40;;;6.80;99.70;;;;;;5009493;28;20449;-70
2021/05/02 03:26:03;;;;;;;12.70;5.57;;;6.80;99.70;;;;;;5010496;28;20454;-70
2021/05/02 03:28:35;;;;;;;9.93;4.30;;;6.90;99.70;;;;;;5010259;28;20456;-71
2021/05/02 03:31:03;;;;;;;13.67;6.47;;;6.90;99.70;;;;;;5010191;28;20473;-70
2021/05/02 03:33:34;;;;;;;16.87;5.20;;;6.80;99.70;;;;;;5009181;28;20859;-70
2021/05/02 03:36:02;;;;;;;20.90;6.53;;;6.60;99.70;;;;;;5010238;28;20446;-70
2021/05/02 03:38:34;;;;;;;15.67;6.00;;;6.80;99.70;;;;;;5010534;28;20449;-71
2021/05/02 03:41:01;;;;;;;14.90;5.20;;;6.80;99.70;;;;;;5010017;28;20464;-71
2021/05/02 03:43:27;;;;;;;10.73;5.00;;;6.70;99.70;;;;;;5009813;28;20448;-71
2021/05/02 03:45:54;;;;;;;10.60;7.17;;;6.60;99.70;;;;;;5010082;28;20979;-70
2021/05/02 03:48:21;;;;;;;14.87;6.13;;;6.60;99.70;;;;;;5010203;28;20944;-70
2021/05/02 03:50:47;;;;;;;11.87;6.17;;;6.70;99.70;;;;;;5010147;28;20515;-70
2021/05/02 03:53:13;;;;;;;13.10;6.37;;;6.80;99.70;;;;;;5010133;28;20445;-70
2021/05/02 03:55:40;;;;;;;14.63;5.50;;;6.70;99.70;;;;;;5010405;28;20445;-71
2021/05/02 03:58:11;;;;;;;10.60;5.70;;;6.60;99.70;;;;;;5009482;28;20978;-71
2021/05/02 04:00:38;;;;;;;15.47;5.80;;;6.70;99.70;;;;;;5009586;28;20485;-71
2021/05/02 04:03:04;;;;;;;11.13;5.20;;;6.70;99.70;;;;;;5009459;28;20442;-71
2021/05/02 04:05:31;;;;;;;16.10;6.20;;;6.80;99.70;;;;;;5010132;28;20445;-71
2021/05/02 04:07:57;;;;;;;13.13;5.70;;;6.70;99.70;;;;;;5008777;28;20457;-71
2021/05/02 04:10:23;;;;;;;10.33;5.03;;;6.70;99.70;;;;;;5009786;28;20469;-71
2021/05/02 04:12:50;;;;;;;14.13;6.10;;;6.80;99.70;;;;;;5009598;28;20453;-71
2021/05/02 04:15:17;;;;;;;18.93;6.20;;;7.00;99.70;;;;;;5009825;28;20453;-71
2021/05/02 04:17:43;;;;;;;16.40;6.77;;;6.80;99.70;;;;;;5009568;28;20453;-71
2021/05/02 04:20:11;;;;;;;11.70;4.83;;;6.70;99.70;;;;;;5009402;28;20481;-70
2021/05/02 04:22:38;;;;;;;16.50;6.20;;;6.60;99.70;;;;;;5008898;28;20441;-71
2021/05/02 04:25:05;;;;;;;17.27;6.77;;;6.70;99.70;;;;;;5009649;28;20453;-69
2021/05/02 04:27:32;;;;;;;9.53;4.97;;;6.80;99.70;;;;;;5009806;28;20452;-69
2021/05/02 04:29:58;;;;;;;12.47;6.60;;;6.60;99.70;;;;;;5009562;28;20453;-69
2021/05/02 04:32:26;;;;;;;12.33;5.97;;;6.60;99.70;;;;;;5009792;28;20453;-71
2021/05/02 04:34:53;;;;;;;14.53;5.67;;;6.60;99.70;;;;;;5009671;28;20500;-71
2021/05/02 04:37:19;;;;;;;15.33;6.50;;;6.60;99.70;;;;;;5009255;28;20872;-71
2021/05/02 04:39:46;;;;;;;16.20;6.27;;;6.60;99.70;;;;;;5009745;28;20492;-71
2021/05/02 04:42:12;;;;;;;9.67;4.30;;;6.60;99.70;;;;;;5008599;28;20469;-70
2021/05/02 04:44:38;;;;;;;14.17;5.73;;;6.70;99.70;;;;;;5010680;28;20461;-71
2021/05/02 04:47:05;;;;;;;13.10;4.70;;;6.70;99.70;;;;;;5012931;28;20461;-71
2021/05/02 04:49:32;;;;;;;11.87;5.90;;;6.80;99.70;;;;;;5013553;28;20441;-71
2021/05/02 04:51:59;;;;;;;16.93;5.90;;;6.80;99.70;;;;;;5012955;28;20469;-71
2021/05/02 04:54:25;;;;;;;11.53;5.40;;;6.90;99.70;;;;;;5013100;28;20449;-71
2021/05/02 04:56:51;;;;;;;12.37;6.07;;;7.10;99.70;;;;;;5012945;28;20449;-70
2021/05/02 04:59:17;;;;;;;14.43;6.50;;;7.00;99.70;;;;;;5013199;28;21011;-71
2021/05/02 05:01:45;;;;;;;14.47;6.60;;;6.90;99.70;;;;;;5012820;28;20492;-71
2021/05/02 05:04:13;;;;;;;14.70;6.93;;;6.90;99.70;;;;;;5012701;28;20445;-71
2021/05/02 05:06:40;;;;;;;12.83;5.90;;;6.90;99.70;;;;;;5013023;28;20460;-72
2021/05/02 05:09:06;;;;;;;16.87;5.40;;;7.00;99.70;;;;;;5012988;28;20453;-71
2021/05/02 05:11:33;;;;;;;18.00;6.53;;;7.00;99.70;;;;;;5013365;28;20877;-71
2021/05/02 05:13:59;;;;;;;13.97;5.87;;;7.10;99.70;;;;;;5012773;28;20445;-71
2021/05/02 05:16:26;;;;;;;18.27;5.70;;;7.10;99.70;;;;;;5013100;28;20445;-71
2021/05/02 05:18:52;;;;;;;16.27;6.50;;;7.10;99.70;;;;;;5012550;28;20505;-71
2021/05/02 05:21:19;;;;;;;13.90;5.27;;;7.10;99.70;;;;;;5011921;28;20961;-72
2021/05/02 05:23:46;;;;;;;13.27;6.83;;;7.20;99.70;;;;;;5012464;28;20865;-72
2021/05/02 05:26:12;;;;;;;15.60;7.50;;;7.20;99.70;;;;;;5012681;28;20437;-71
2021/05/02 05:28:38;;;;;;;13.37;5.77;;;7.20;99.70;;;;;;5012418;28;20473;-71
2021/05/02 05:31:04;;;;;;;14.97;6.10;;;7.10;99.70;;;;;;5012369;28;20831;-71
2021/05/02 05:33:31;;;;;;;17.40;5.97;;;7.20;99.70;;;;;;5012578;28;20499;-70
2021/05/02 05:35:58;;;;;;;13.57;6.30;;;7.10;99.70;;;;;;5012481;28;20450;-71
2021/05/02 05:38:25;;;;;;;12.93;5.43;;;7.10;99.70;;;;;;5012121;28;20449;-71
2021/05/02 05:40:52;;;;;;;14.00;6.30;;;7.20;99.70;;;;;;5012270;28;20996;-71
2021/05/02 05:43:18;;;;;;;13.70;6.90;;;7.20;99.70;;;;;;5011945;28;20442;-71
2021/05/02 05:45:44;;;;;;;12.80;5.40;;;7.30;99.70;;;;;;5012444;28;20828;-71
2021/05/02 05:48:11;;;;;;;14.77;5.87;;;7.30;99.70;;;;;;5011958;28;20453;-71
2021/05/02 05:50:39;;;;;;;9.70;5.23;;;7.40;99.70;;;;;;5012248;28;20470;-71
2021/05/02 05:53:05;;;;;;;12.10;6.20;;;7.30;99.70;;;;;;5011641;28;20459;-71
2021/05/02 05:55:31;;;;;;;12.13;5.13;;;7.50;99.70;;;;;;5011653;28;20503;-71
2021/05/02 05:57:59;;;;;;;12.43;5.40;;;7.70;99.70;;;;;;5011220;28;20449;-71
2021/05/02 06:00:25;;;;;;;11.27;5.40;;;7.90;99.70;;;;;;5011825;28;20485;-71
2021/05/02 06:02:51;;;;;;;16.70;5.70;;;8.00;99.70;;;;;;5011822;28;20438;-71
2021/05/02 06:05:18;;;;;;;10.30;6.37;;;7.90;99.70;;;;;;5011705;28;20464;-72
2021/05/02 06:07:44;;;;;;;14.50;6.87;;;7.90;99.70;;;;;;5011537;28;20545;-71
2021/05/02 06:10:12;;;;;;;20.33;8.97;;;7.70;99.70;;;;;;5011677;28;20441;-70
2021/05/02 06:12:38;;;;;;;11.43;5.33;;;7.60;99.70;;;;;;5011219;28;20468;-71
2021/05/02 06:15:07;;;;;;;16.63;6.13;;;7.70;99.70;;;;;;5011056;28;20469;-71
2021/05/02 06:17:33;;;;;;;14.73;6.47;;;8.00;99.70;;;;;;5011501;28;20537;-72
2021/05/02 06:19:59;;;;;;;14.03;6.70;;;8.00;99.70;;;;;;5011719;28;20941;-70
2021/05/02 06:22:26;;;;;;;14.03;5.07;;;8.40;99.70;;;;;;5010509;28;20525;-70
2021/05/02 06:24:52;;;;;;;12.73;6.13;;;8.30;99.70;;;;;;5011204;28;20460;-70
2021/05/02 06:27:18;;;;;;;19.27;6.03;;;8.60;99.70;;;;;;5011301;28;20972;-70
2021/05/02 06:29:44;;;;;;;17.00;5.27;;;8.80;99.70;;;;;;5011839;28;20496;-70
2021/05/02 06:32:11;;;;;;;18.13;6.00;;;8.80;99.70;;;;;;5011280;28;20472;-70
2021/05/02 06:34:37;;;;;;;12.63;5.67;;;8.70;99.70;;;;;;5011257;28;20865;-71
2021/05/02 06:37:04;;;;;;;13.40;5.57;;;8.50;99.70;;;;;;5010824;28;20458;-71
2021/05/02 06:39:30;;;;;;;13.13;5.67;;;8.40;99.70;;;;;;5011417;28;20481;-71
2021/05/02 06:41:56;;;;;;;10.97;4.97;;;8.40;99.70;;;;;;5011317;28;20499;-70
2021/05/02 06:44:23;;;;;;;11.50;5.30;;;8.50;99.70;;;;;;5007833;28;20519;-70
2021/05/02 06:46:49;;;;;;;16.63;6.97;;;8.60;99.70;;;;;;4991725;28;20854;-71
2021/05/02 06:49:16;;;;;;;14.57;5.70;;;8.60;99.70;;;;;;4997965;28;20442;-71
2021/05/02 06:51:44;;;;;;;15.63;6.23;;;8.60;99.70;;;;;;5011030;28;21000;-71
2021/05/02 06:54:10;;;;;;;12.37;4.63;;;8.60;99.70;;;;;;5010551;28;20878;-70
2021/05/02 06:56:36;;;;;;;10.33;4.67;;;8.60;99.70;;;;;;5010748;28;20931;-71
2021/05/02 06:59:03;;;;;;;9.40;4.63;;;8.80;99.70;;;;;;5010727;28;20445;-71
2021/05/02 07:01:31;;;;;;;9.27;5.10;;;9.00;99.70;;;;;;5010690;28;20500;-71
2021/05/02 07:03:57;;;;;;;9.20;4.80;;;8.90;99.70;;;;;;5010419;28;20449;-70
2021/05/02 07:06:24;;;;;;;15.10;5.37;;;9.10;99.70;;;;;;5010559;28;20449;-71
2021/05/02 07:08:51;;;;;;;11.63;4.37;;;9.00;99.70;;;;;;5010931;28;20827;-71
2021/05/02 07:11:17;;;;;;;14.20;5.93;;;9.30;99.70;;;;;;5010128;28;20470;-70
2021/05/02 07:13:43;;;;;;;11.07;5.20;;;9.50;99.70;;;;;;5010632;28;20473;-70
2021/05/02 07:16:10;;;;;;;14.40;5.03;;;9.60;99.70;;;;;;5010492;28;20434;-70
2021/05/02 07:18:39;;;;;;;9.93;4.80;;;9.50;99.70;;;;;;5010529;28;20835;-70
2021/05/02 07:21:06;;;;;;;12.13;4.73;;;9.40;99.70;;;;;;5010198;28;20579;-70
2021/05/02 07:23:36;;;;;;;14.27;6.40;;;9.30;99.70;;;;;;5009541;28;20446;-71
2021/05/02 07:26:03;;;;;;;10.50;4.83;;;9.20;99.70;;;;;;5010435;28;20454;-71
2021/05/02 07:28:29;;;;;;;10.27;5.27;;;9.40;99.70;;;;;;5010150;28;20462;-70
2021/05/02 07:30:55;;;;;;;11.67;5.63;;;9.40;99.70;;;;;;5010492;28;20462;-71
2021/05/02 07:33:22;;;;;;;12.60;5.33;;;9.50;99.70;;;;;;5009536;28;20450;-71
2021/05/02 07:35:49;;;;;;;14.50;5.80;;;9.40;99.70;;;;;;5010456;28;20456;-71
2021/05/02 07:38:16;;;;;;;12.83;4.97;;;9.10;99.70;;;;;;5009861;28;20952;-70
2021/05/02 07:40:43;;;;;;;13.90;4.73;;;9.10;99.70;;;;;;5006318;28;20482;-70
2021/05/02 07:43:09;;;;;;;14.23;5.90;;;9.50;99.70;;;;;;5000442;28;20446;-70
2021/05/02 07:45:36;;;;;;;13.13;6.37;;;9.60;99.70;;;;;;4998637;28;20489;-70
2021/05/02 07:48:02;;;;;;;11.77;4.93;;;9.60;99.70;;;;;;4991933;28;20989;-69
2021/05/02 07:50:28;;;;;;;13.17;5.13;;;9.60;99.70;;;;;;4994386;28;20471;-70
2021/05/02 07:52:54;;;;;;;15.90;5.37;;;9.70;99.70;;;;;;5002902;28;20446;-70
2021/05/02 07:55:21;;;;;;;11.90;5.23;;;9.80;99.70;;;;;;4998448;28;20450;-70
2021/05/02 07:57:48;;;;;;;16.20;5.27;;;10.10;99.70;;;;;;5002170;28;20439;-71
2021/05/02 08:00:18;;;;;;;13.67;5.50;;;9.80;99.70;;;;;;4998937;28;21000;-70
2021/05/02 08:02:45;;;;;;;10.90;4.60;;;10.10;99.70;;;;;;5000375;28;20462;-71
2021/05/02 08:05:12;;;;;;;13.67;6.30;;;10.00;99.70;;;;;;4998101;28;20572;-69
2021/05/02 08:07:39;;;;;;;14.20;5.80;;;9.70;99.70;;;;;;4995782;28;20442;-70
2021/05/02 08:10:07;;;;;;;7.10;4.00;;;9.70;99.70;;;;;;4993734;28;20466;-70
2021/05/02 08:12:33;;;;;;;11.73;5.00;;;9.50;99.70;;;;;;4998665;28;20802;-69
2021/05/02 08:15:01;;;;;;;13.50;5.33;;;9.50;99.70;;;;;;4996819;28;20462;-70
2021/05/02 08:17:27;;;;;;;12.10;5.83;;;9.60;99.70;;;;;;5002457;28;20455;-70
2021/05/02 08:19:53;;;;;;;11.47;5.50;;;9.60;99.70;;;;;;5005658;28;20820;-70
2021/05/02 08:22:19;;;;;;;11.67;5.30;;;9.80;99.70;;;;;;5002849;28;20470;-70
2021/05/02 08:24:46;;;;;;;10.90;4.93;;;9.80;99.70;;;;;;5011694;28;20453;-71
2021/05/02 08:27:12;;;;;;;9.77;4.83;;;9.90;99.70;;;;;;5014004;28;20445;-71
2021/05/02 08:29:39;;;;;;;12.67;5.27;;;10.10;99.70;;;;;;5013653;28;20453;-70
2021/05/02 08:32:06;;;;;;;12.60;5.00;;;10.10;99.70;;;;;;5013734;28;20831;-70
2021/05/02 08:34:32;;;;;;;8.53;4.13;;;10.20;99.70;;;;;;5013601;28;20468;-70
2021/05/02 08:36:58;;;;;;;8.40;4.10;;;10.40;99.70;;;;;;5012935;28;20446;-71
2021/05/02 08:39:24;;;;;;;12.03;5.40;;;10.50;99.70;;;;;;5013557;28;20987;-70
2021/05/02 08:41:51;;;;;;;9.03;4.60;;;10.50;99.70;;;;;;5010645;28;20872;-70
2021/05/02 08:44:20;;;;;;;10.90;5.47;;;10.40;99.70;;;;;;5013306;28;20564;-71
2021/05/02 08:46:46;;;;;;;14.53;5.30;;;10.50;99.70;;;;;;5012393;28;20450;-70
2021/05/02 08:49:13;;;;;;;9.20;4.60;;;10.60;99.70;;;;;;5013557;28;20472;-70
2021/05/02 08:51:40;;;;;;;9.50;4.90;;;10.30;99.70;;;;;;5012823;28;20465;-70
2021/05/02 08:54:06;;;;;;;13.77;5.93;;;10.50;99.70;;;;;;5013096;28;20452;-70
2021/05/02 08:56:32;;;;;;;16.10;5.43;;;10.50;99.70;;;;;;5013538;28;20802;-71
2021/05/02 08:58:58;;;;;;;9.80;4.33;;;10.50;99.70;;;;;;5013344;28;20532;-70
2021/05/02 09:01:27;;;;;;;11.00;5.00;;;10.60;99.70;;;;;;5012880;28;20504;-71
2021/05/02 09:03:54;;;;;;;17.80;5.20;;;10.60;99.70;;;;;;5013063;28;20450;-71
2021/05/02 09:06:22;;;;;;;7.50;4.30;;;10.40;99.70;;;;;;5012727;28;20445;-70
2021/05/02 09:08:50;;;;;;;10.90;4.70;;;10.50;99.70;;;;;;5013330;28;20485;-71
2021/05/02 09:11:17;;;;;;;9.87;4.70;;;10.50;99.70;;;;;;5013026;28;20462;-71
2021/05/02 09:13:48;;;;;;;10.53;4.17;;;10.40;99.70;;;;;;5012718;28;20829;-71
2021/05/02 09:16:14;;;;;;;12.27;4.57;;;10.70;99.70;;;;;;5012647;28;20987;-71
2021/05/02 09:18:45;;;;;;;9.80;4.53;;;10.90;99.70;;;;;;5012623;28;20453;-71
2021/05/02 09:21:16;;;;;;;11.23;4.40;;;11.00;99.70;;;;;;5009367;28;20490;-70
2021/05/02 09:23:44;;;;;;;14.63;5.77;;;10.90;99.70;;;;;;5005547;28;20503;-71
2021/05/02 09:26:19;;;;;;;11.13;4.67;;;11.20;99.70;;;;;;5013019;28;20445;-70
2021/05/02 09:28:47;;;;;;;13.93;5.37;;;11.40;99.70;;;;;;5012015;28;20960;-70
2021/05/02 09:31:18;;;;;;;10.63;5.60;;;11.10;99.70;;;;;;4998392;28;21040;-71
2021/05/02 09:33:45;;;;;;;11.80;5.20;;;11.20;99.70;;;;;;5000340;28;20982;-70
2021/05/02 09:36:12;;;;;;;14.60;5.30;;;11.20;99.70;;;;;;5010315;28;20449;-71
2021/05/02 09:38:39;;;;;;;10.77;4.90;;;11.10;99.70;;;;;;5011780;28;20452;-70
2021/05/02 09:41:07;;;;;;;15.30;5.40;;;10.90;99.70;;;;;;5004494;28;20490;-72
2021/05/02 09:43:39;;;;;;;9.30;4.50;;;10.70;99.70;;;;;;5007363;28;20449;-70
2021/05/02 09:46:27;;;;;;;8.10;4.73;;;10.30;99.70;;;;;;5002866;28;20469;-71
2021/05/02 09:48:59;;;;;;;10.63;4.83;;;10.30;99.70;;;;;;5012190;28;21059;-70
2021/05/02 09:51:26;;;;;;;11.57;5.27;;;10.20;99.70;;;;;;5011672;28;20636;-70
2021/05/02 09:54:04;;;;;;;9.37;5.03;;;10.10;99.70;;;;;;5011818;28;20452;-70
2021/05/02 09:56:36;;;;;;;12.83;5.33;;;10.40;99.70;;;;;;5011279;28;20452;-70
2021/05/02 09:59:03;;;;;;;11.67;5.20;;;11.20;99.70;;;;;;5008797;28;20449;-70
2021/05/02 10:01:29;;;;;;;12.70;5.13;;;11.30;99.70;;;;;;5011776;28;20493;-70
2021/05/02 10:03:59;;;;;;;12.10;4.60;;;11.20;99.70;;;;;;5012193;28;21125;-72
2021/05/02 10:06:30;;;;;;;13.73;5.27;;;11.10;99.70;;;;;;5011930;28;20465;-71
2021/05/02 10:08:57;;;;;;;11.13;5.40;;;11.00;99.70;;;;;;5004513;28;20454;-71
2021/05/02 10:11:24;;;;;;;9.20;4.97;;;10.80;99.70;;;;;;5004234;28;20461;-71
2021/05/02 10:13:52;;;;;;;7.77;3.90;;;10.60;99.70;;;;;;5007938;28;20461;-71
2021/05/02 10:16:18;;;;;;;11.93;5.83;;;10.50;99.70;;;;;;5003353;28;20446;-71
2021/05/02 10:18:45;;;;;;;11.13;5.10;;;10.40;99.70;;;;;;5007600;28;20457;-71
2021/05/02 10:21:11;;;;;;;9.80;4.90;;;10.30;99.70;;;;;;5004705;28;20572;-71
2021/05/02 10:23:38;;;;;;;12.40;5.13;;;10.20;99.70;;;;;;5008799;28;20461;-71
2021/05/02 10:26:05;;;;;;;15.20;5.60;;;10.10;99.70;;;;;;5002316;28;20457;-71
2021/05/02 10:28:33;;;;;;;11.97;5.43;;;10.10;99.70;;;;;;5003447;28;21191;-71
2021/05/02 10:31:02;;;;;;;11.97;5.50;;;10.30;99.70;;;;;;5011533;28;20904;-71
2021/05/02 10:33:34;;;;;;;11.20;5.27;;;10.50;99.70;;;;;;5011260;28;20477;-71
2021/05/02 10:36:03;;;;;;;9.23;4.50;;;10.70;99.70;;;;;;5010271;28;20585;-71
2021/05/02 10:38:45;;;;;;;12.87;5.07;;;10.80;99.70;;;;;;5011183;28;20458;-71
2021/05/02 10:41:29;;;;;;;12.83;5.27;;;10.70;99.70;;;;;;5010124;28;20554;-72
2021/05/02 10:43:58;;;;;;;11.00;4.90;;;10.80;99.70;;;;;;5010515;28;20442;-71
2021/05/02 10:46:52;;;;;;;13.97;4.60;;;10.90;99.70;;;;;;5010335;28;20453;-71
2021/05/02 10:49:53;;;;;;;10.30;4.87;;;10.80;99.70;;;;;;5007947;28;20974;-71
2021/05/02 10:52:30;;;;;;;8.70;4.47;;;10.80;99.70;;;;;;5006509;28;20907;-71
2021/05/02 10:55:12;;;;;;;11.57;4.93;;;11.10;99.70;;;;;;5011860;28;20437;-71
2021/05/02 10:57:38;;;;;;;11.70;5.17;;;11.20;99.70;;;;;;5011932;28;20510;-71
2021/05/02 11:00:07;;;;;;;13.33;5.80;;;11.40;99.70;;;;;;5011272;28;20477;-70
2021/05/02 11:02:40;;;;;;;9.33;4.03;;;11.30;99.70;;;;;;5004199;28;20560;-70
2021/05/02 11:05:07;;;;;;;13.63;5.67;;;11.20;99.70;;;;;;5008639;28;20453;-70
2021/05/02 11:07:36;;;;;;;11.10;5.37;;;11.20;99.70;;;;;;5009615;28;20450;-71
2021/05/02 11:10:04;;;;;;;12.07;4.60;;;11.20;99.70;;;;;;5009685;28;20965;-71
2021/05/02 11:12:31;;;;;;;11.13;4.50;;;11.20;99.70;;;;;;5011323;28;20623;-71
2021/05/02 11:14:59;;;;;;;8.97;4.77;;;11.40;99.70;;;;;;5002143;28;20446;-71
2021/05/02 11:17:37;;;;;;;12.43;5.20;;;11.50;99.50;;;;;;5006012;28;20481;-71
2021/05/02 11:20:08;;;;;;;13.97;5.23;;;11.50;99.70;;;;;;5000759;28;20539;-72
2021/05/02 11:22:48;;;;;;;13.87;4.93;;;11.30;98.30;;;;;;5001333;28;20444;-71
2021/05/02 11:25:17;;;;;;;11.77;4.90;;;11.60;99.70;;;;;;5010685;28;20899;-71
2021/05/02 11:27:56;;;;;;;12.17;5.00;;;11.80;99.70;;;;;;5009574;28;20459;-71
2021/05/02 11:30:26;;;;;;;10.43;5.00;;;12.10;99.70;;;;;;5033010;22;20786;-64
2021/05/02 11:32:53;;;;;;;10.73;5.07;;;12.20;98.30;;;;;;5016495;28;20449;-64
2021/05/02 11:35:54;;;;;;;11.00;5.20;;;12.00;99.70;;;;;;5018328;28;20512;-67
2021/05/02 11:38:22;;;;;;;10.93;4.40;;;12.00;98.00;;;;;;5017958;28;20481;-65
2021/05/02 11:40:57;;;;;;;12.50;5.47;;;11.80;99.20;;;;;;5012743;28;20544;-67
2021/05/02 11:43:27;;;;;;;10.33;4.97;;;11.50;98.00;;;;;;4999142;28;20446;-65
2021/05/02 11:45:55;;;;;;;9.60;4.83;;;11.30;99.70;;;;;;4999744;28;20453;-68
2021/05/02 11:48:23;;;;;;;14.77;5.83;;;11.10;98.30;;;;;;4998471;28;20449;-66
2021/05/02 11:50:55;;;;;;;14.20;5.07;;;11.00;99.70;;;;;;4998738;28;20462;-68
2021/05/02 11:53:39;;;;;;;13.40;5.60;;;10.80;99.70;;;;;;4998000;28;20541;-66
2021/05/02 11:56:22;;;;;;;9.53;4.70;;;10.30;99.70;;;;;;4998267;28;20446;-68
2021/05/02 11:58:50;;;;;;;10.43;5.30;;;10.10;99.70;;;;;;4998469;28;20473;-68
2021/05/02 12:01:21;;;;;;;15.50;5.43;;;10.00;99.70;;;;;;4999068;28;20490;-69
2021/05/02 12:03:48;;;;;;;12.60;5.43;;;9.80;99.70;;;;;;4998486;28;20446;-68
2021/05/02 12:06:28;;;;;;;12.60;5.50;;;9.90;99.70;;;;;;4998244;28;20468;-66
2021/05/02 12:08:55;;;;;;;11.97;5.50;;;9.80;99.70;;;;;;4998695;28;20442;-68
2021/05/02 12:11:23;;;;;;;10.63;5.37;;;10.00;99.70;;;;;;4997754;28;20454;-67
2021/05/02 12:13:51;;;;;;;13.70;5.63;;;10.10;99.70;;;;;;4997410;28;20446;-66
2021/05/02 12:16:18;;;;;;;14.63;5.60;;;10.10;99.70;;;;;;4998498;28;20465;-67
2021/05/02 12:18:48;;;;;;;14.60;6.20;;;10.10;99.70;;;;;;4997789;28;20447;-66
2021/05/02 12:21:20;;;;;;;12.83;5.53;;;9.90;99.70;;;;;;4998354;28;20493;-68
2021/05/02 12:23:47;;;;;;;15.23;5.97;;;10.10;99.70;;;;;;4997633;28;20526;-66
2021/05/02 12:26:14;;;;;;;12.40;5.33;;;10.10;99.70;;;;;;4998389;28;20460;-67
2021/05/02 12:28:41;;;;;;;13.73;5.40;;;10.10;99.70;;;;;;4997103;28;20504;-67
2021/05/02 12:31:10;;;;;;;13.37;5.97;;;10.10;99.70;;;;;;4997651;28;20639;-66
2021/05/02 12:33:37;;;;;;;11.67;5.33;;;10.30;99.70;;;;;;4998005;28;20450;-66
2021/05/02 12:36:05;;;;;;;18.20;6.60;;;10.40;99.70;;;;;;4998432;28;20965;-67
2021/05/02 12:38:31;;;;;;;11.07;5.40;;;10.40;99.70;;;;;;4997861;28;20450;-67
2021/05/02 12:40:59;;;;;;;13.80;5.40;;;10.40;99.70;;;;;;4997828;28;20493;-66
2021/05/02 12:43:26;;;;;;;14.73;5.13;;;10.40;99.70;;;;;;4996760;28;20446;-68
2021/05/02 12:45:53;;;;;;;15.60;5.70;;;10.40;99.70;;;;;;4999520;28;20866;-67
2021/05/02 12:48:31;;;;;;;8.93;4.43;;;10.40;99.70;;;;;;4997689;28;20881;-66
2021/05/02 12:50:58;;;;;;;7.63;3.87;;;10.00;99.70;;;;;;4997642;28;20697;-65
2021/05/02 12:53:39;;;;;;;6.23;3.73;;;9.20;99.70;;;;;;4996480;28;20497;-64